Laneville, Texas
Current Conditions -  °F | °C
As of 4:55 PM on Thursday 27 Nov 2014 (Local Time) from KRFI Reporting Station
Clear Clear  
Wind Chill: 56°   Ceiling: Unl
Heat Index: 56°   Visibility: 10mi
Dew Point: 28°   Wind: 3mph
Humidity: 34%   Direction: 110°ESE
Pressure: 30.44"   Gusts: NA
Location:  31.97°N, 94.81°W
Report Text: KRFI 272255Z AUTO 11003KT 10SM CLR 13/M02 A3044 RMK AO2 T01341024
Loading
Personal Weather Stations






























Interactive Weather Map New forecast layout! Learn more

10-Day Weather Forecast

Advertisements
Track Severe Weather on mobile